createdAt,value
2019-01-12T13:17:48.945Z,6.83
2019-01-12T13:20:17.330Z,6.27
2019-01-12T13:22:43.947Z,5.60
2019-01-12T13:25:10.764Z,5.80
2019-01-12T13:27:40.036Z,5.50
2019-01-12T13:30:09.489Z,5.33
2019-01-12T13:32:36.254Z,4.47
2019-01-12T13:35:04.838Z,3.63
2019-01-12T13:37:31.470Z,4.03
2019-01-12T13:39:58.272Z,3.50
2019-01-12T13:42:24.939Z,3.50
2019-01-12T13:44:51.662Z,3.70
2019-01-12T13:47:20.888Z,4.07
2019-01-12T13:49:48.009Z,3.97
2019-01-12T13:52:14.790Z,3.80
2019-01-12T13:54:41.565Z,3.80
2019-01-12T13:57:08.321Z,3.63
2019-01-12T13:59:35.194Z,3.77
2019-01-12T14:02:02.138Z,3.60
2019-01-12T14:04:28.926Z,3.37
2019-01-12T14:06:55.645Z,3.60
2019-01-12T14:09:22.285Z,3.77
2019-01-12T14:11:48.955Z,3.70
2019-01-12T14:14:15.597Z,3.93
2019-01-12T14:16:42.374Z,3.70
2019-01-12T14:19:09.044Z,3.50
2019-01-12T14:21:35.704Z,3.60
2019-01-12T14:24:02.369Z,4.10
2019-01-12T14:26:29.333Z,3.63
2019-01-12T14:28:56.183Z,3.57
2019-01-12T14:31:22.853Z,3.57
2019-01-12T14:33:49.521Z,3.87
2019-01-12T14:36:16.265Z,3.37
2019-01-12T14:38:42.952Z,3.97
2019-01-12T14:41:09.638Z,3.50
2019-01-12T14:43:36.410Z,4.77
2019-01-12T14:46:03.257Z,3.70
2019-01-12T14:48:29.937Z,3.83
2019-01-12T14:50:56.555Z,4.37
2019-01-12T14:53:23.368Z,4.43
2019-01-12T14:55:50.081Z,3.73
2019-01-12T14:58:16.963Z,3.23
2019-01-12T15:00:43.740Z,3.57
2019-01-12T15:03:10.461Z,3.67
2019-01-12T15:05:37.274Z,2.90
2019-01-12T15:08:04.313Z,3.10
2019-01-12T15:10:31.080Z,2.93
2019-01-12T15:12:57.726Z,3.40
2019-01-12T15:15:24.541Z,3.10
2019-01-12T15:17:51.220Z,3.03
2019-01-12T15:20:19.867Z,3.67
2019-01-12T15:22:46.713Z,2.90
2019-01-12T15:25:13.745Z,2.63
2019-01-12T15:27:41.129Z,3.27
2019-01-12T15:30:11.256Z,3.17
2019-01-12T15:32:37.933Z,3.10
2019-01-12T15:35:05.272Z,5.80
2019-01-12T15:37:31.992Z,2.63
2019-01-12T15:39:58.640Z,2.40
2019-01-12T15:42:25.298Z,2.57
2019-01-12T15:44:52.586Z,2.00
2019-01-12T15:47:19.909Z,2.27
2019-01-12T15:49:48.986Z,2.13
2019-01-12T15:52:16.389Z,1.90
2019-01-12T15:54:44.998Z,2.03
2019-01-12T15:57:12.430Z,2.37
2019-01-12T15:59:39.784Z,1.77
2019-01-12T16:02:07.138Z,2.47
2019-01-12T16:04:34.043Z,1.67
2019-01-12T16:07:01.083Z,2.30
2019-01-12T16:09:28.050Z,1.80
2019-01-12T16:11:55.227Z,1.90
2019-01-12T16:14:22.007Z,1.60
2019-01-12T16:16:48.706Z,2.10
2019-01-12T16:19:15.365Z,2.33
2019-01-12T16:21:42.751Z,2.27
2019-01-12T16:24:10.753Z,2.20
2019-01-12T16:26:38.058Z,2.60
2019-01-12T16:29:04.728Z,2.93
2019-01-12T16:31:31.369Z,1.90
2019-01-12T16:33:58.136Z,2.50
2019-01-12T16:36:24.805Z,2.20
2019-01-12T16:38:51.633Z,2.73
2019-01-12T16:41:18.704Z,1.90
2019-01-12T16:43:45.429Z,4.13
2019-01-12T16:46:12.101Z,1.80
2019-01-12T16:48:38.728Z,1.50
2019-01-12T16:51:05.408Z,1.90
2019-01-12T16:53:32.284Z,1.37
2019-01-12T16:55:59.727Z,1.47
2019-01-12T16:58:30.335Z,1.20
2019-01-12T17:00:54.868Z,1.60
2019-01-12T17:03:21.556Z,1.77
2019-01-12T17:05:48.180Z,1.90
2019-01-12T17:08:15.464Z,1.60
2019-01-12T17:10:42.116Z,2.00
2019-01-12T17:13:08.805Z,2.00
2019-01-12T17:15:35.425Z,2.90
2019-01-12T17:18:02.134Z,4.03
2019-01-12T17:20:28.959Z,7.77
2019-01-12T17:22:57.192Z,8.67
2019-01-12T17:25:23.844Z,13.90
2019-01-12T17:27:51.024Z,6.57
2019-01-12T17:30:20.053Z,4.83
2019-01-12T17:32:46.680Z,3.83
2019-01-12T17:35:13.813Z,4.57
2019-01-12T17:37:41.260Z,3.60
2019-01-12T17:40:10.662Z,4.40
2019-01-12T17:42:37.360Z,4.70
2019-01-12T17:45:10.008Z,4.17
2019-01-12T17:47:37.180Z,3.40
2019-01-12T17:50:07.550Z,3.20
2019-01-12T17:52:34.291Z,3.37
2019-01-12T17:55:00.956Z,3.20
2019-01-12T17:57:27.650Z,3.00
2019-01-12T17:59:54.241Z,3.20
2019-01-12T18:02:21.049Z,3.00
2019-01-12T18:04:47.704Z,3.23
2019-01-12T18:07:14.368Z,2.93
2019-01-12T18:09:41.025Z,5.53
2019-01-12T18:12:07.764Z,4.30
2019-01-12T18:14:34.456Z,3.43
2019-01-12T18:17:01.129Z,3.53
2019-01-12T18:19:27.917Z,4.00
2019-01-12T18:21:54.600Z,3.30
2019-01-12T18:24:21.297Z,3.60
2019-01-12T18:26:48.450Z,3.70
2019-01-12T18:29:15.112Z,4.47
2019-01-12T18:31:41.801Z,3.97
2019-01-12T18:34:08.541Z,5.20
2019-01-12T18:36:37.136Z,4.67
2019-01-12T18:39:05.524Z,5.00
2019-01-12T18:41:32.153Z,5.00
2019-01-12T18:43:58.831Z,5.57
2019-01-12T18:46:25.479Z,4.83
2019-01-12T18:48:52.261Z,5.07
2019-01-12T18:51:18.989Z,6.70
2019-01-12T18:53:45.675Z,6.80
2019-01-12T18:56:12.460Z,6.30
2019-01-12T18:58:39.113Z,6.77
2019-01-12T19:01:05.984Z,5.40
2019-01-12T19:03:32.717Z,5.80
2019-01-12T19:05:59.416Z,4.60
2019-01-12T19:08:26.072Z,5.20
2019-01-12T19:10:52.733Z,5.40
2019-01-12T19:13:19.384Z,7.20
2019-01-12T19:15:46.037Z,5.53
2019-01-12T19:18:12.748Z,4.80
2019-01-12T19:20:39.391Z,5.93
2019-01-12T19:23:06.703Z,5.00
2019-01-12T19:25:33.684Z,9.83
2019-01-12T19:28:00.987Z,6.20
2019-01-12T19:30:28.086Z,5.53
2019-01-12T19:32:55.338Z,5.13
2019-01-12T19:35:23.409Z,4.87
2019-01-12T19:37:50.123Z,6.10
2019-01-12T19:40:21.189Z,4.53
2019-01-12T19:42:47.870Z,5.07
2019-01-12T19:45:15.236Z,21.00
2019-01-12T19:48:01.670Z,6.90
2019-01-12T19:50:28.332Z,3.80
2019-01-12T19:52:55.405Z,4.00
2019-01-12T19:55:22.069Z,7.10
2019-01-12T19:57:48.689Z,4.03
2019-01-12T20:00:21.744Z,3.63
2019-01-12T20:02:48.915Z,8.67
2019-01-12T20:05:15.612Z,4.27
2019-01-12T20:07:42.236Z,4.10
2019-01-12T20:10:11.897Z,3.73
2019-01-12T20:12:38.541Z,4.43
2019-01-12T20:15:09.600Z,4.80
2019-01-12T20:17:36.333Z,2.47
2019-01-12T20:20:06.361Z,2.73
2019-01-12T20:22:33.153Z,3.13
2019-01-12T20:24:59.834Z,2.00
2019-01-12T20:27:33.306Z,2.00
2019-01-12T20:29:55.540Z,5.30
2019-01-12T20:32:25.803Z,5.07
2019-01-12T20:34:53.200Z,1.60
2019-01-12T20:37:49.632Z,2.70
2019-01-12T20:40:26.011Z,2.50
2019-01-12T20:42:59.271Z,1.70
2019-01-12T20:45:44.839Z,2.20
2019-01-12T20:48:18.265Z,5.77
2019-01-12T20:51:00.884Z,1.70
2019-01-12T20:53:44.418Z,4.97
2019-01-12T20:56:14.767Z,1.53
2019-01-12T20:58:45.129Z,1.37
2019-01-12T21:01:24.540Z,1.77
2019-01-12T21:04:10.218Z,1.63
2019-01-12T21:07:09.653Z,4.53
2019-01-12T21:09:45.857Z,8.73
2019-01-12T21:12:28.916Z,4.97
2019-01-12T21:14:59.042Z,1.50
2019-01-12T21:17:25.932Z,1.50
2019-01-12T21:19:52.564Z,2.67
2019-01-12T21:22:19.310Z,2.00
2019-01-12T21:24:45.992Z,4.10
2019-01-12T21:27:12.699Z,1.40
2019-01-12T21:29:40.451Z,1.17
2019-01-12T21:32:07.136Z,1.40
2019-01-12T21:34:33.916Z,1.47
2019-01-12T21:37:00.613Z,1.00
2019-01-12T21:39:27.292Z,0.60
2019-01-12T21:41:53.949Z,1.03
2019-01-12T21:44:20.726Z,4.30
2019-01-12T21:46:47.348Z,1.30
2019-01-12T21:49:14.040Z,0.60
2019-01-12T21:51:40.709Z,0.50
2019-01-12T21:54:07.345Z,1.00
2019-01-12T21:56:34.005Z,0.60
2019-01-12T21:59:00.658Z,0.60
2019-01-12T22:01:27.313Z,0.80
2019-01-12T22:03:54.064Z,0.70
2019-01-12T22:06:20.761Z,0.60
2019-01-12T22:08:47.397Z,0.50
2019-01-12T22:11:14.077Z,0.70
2019-01-12T22:13:40.852Z,0.50
2019-01-12T22:16:07.517Z,0.60
2019-01-12T22:18:34.330Z,0.93
2019-01-12T22:21:00.932Z,0.60
2019-01-12T22:23:27.707Z,0.60
2019-01-12T22:25:54.401Z,1.00
2019-01-12T22:28:21.091Z,1.10
2019-01-12T22:30:47.718Z,1.47
2019-01-12T22:33:14.404Z,4.10
2019-01-12T22:35:41.144Z,2.73
2019-01-12T22:38:07.784Z,1.67
2019-01-12T22:40:34.440Z,0.60
2019-01-12T22:43:01.112Z,2.60
2019-01-12T22:45:27.773Z,2.23
2019-01-12T22:47:54.537Z,1.40
2019-01-12T22:50:21.237Z,2.03
2019-01-12T22:52:48.066Z,1.50
2019-01-12T22:55:14.697Z,1.00
2019-01-12T22:57:41.560Z,1.73
2019-01-12T23:00:48.317Z,3.87
2019-01-12T23:03:15.171Z,5.17
2019-01-12T23:05:41.814Z,2.90
2019-01-12T23:08:08.564Z,1.57
2019-01-12T23:10:35.188Z,1.90
2019-01-12T23:13:02.130Z,0.93
2019-01-12T23:15:28.696Z,0.53
2019-01-12T23:17:55.427Z,0.63
2019-01-12T23:20:22.109Z,0.60
2019-01-12T23:22:50.015Z,0.60
2019-01-12T23:25:16.782Z,0.73
2019-01-12T23:27:43.442Z,0.70
2019-01-12T23:30:12.507Z,0.90
2019-01-12T23:32:39.149Z,2.00
2019-01-12T23:35:08.064Z,1.73
2019-01-12T23:37:34.701Z,1.10
2019-01-12T23:40:01.493Z,1.20
2019-01-12T23:42:28.207Z,3.23
2019-01-12T23:44:54.872Z,5.40
2019-01-12T23:47:21.503Z,3.20
2019-01-12T23:49:48.214Z,2.03
2019-01-12T23:52:14.986Z,2.27
2019-01-12T23:54:41.677Z,1.67
2019-01-12T23:57:08.397Z,2.17
2019-01-12T23:59:35.229Z,1.93
